Time;durP1;ratioP1;P1;durP2;ratioP2;P2;SDS_P1;SDS_P2;PMS_P1;PMS_P2;Temp;Humidity;BMP_temperature;BMP_pressure;BME280_temperature;BME280_humidity;BME280_pressure;Samples;Min_cycle;Max_cycle;Signal;HPM_P1;HPM_P2
2023/04/12 00:01:48;;;;;;;0.00;0.00;;;8.90;76.90;;;;;;5029716;28;20071;-63
2023/04/12 00:04:15;;;;;;;0.10;0.10;;;8.90;77.00;;;;;;5035880;28;20407;-63
2023/04/12 00:06:41;;;;;;;0.00;0.00;;;8.90;77.00;;;;;;5048636;28;20048;-63
2023/04/12 00:09:07;;;;;;;0.00;0.00;;;8.90;77.00;;;;;;5049054;28;20041;-62
2023/04/12 00:11:34;;;;;;;0.00;0.00;;;9.00;76.70;;;;;;5041113;28;20090;-62
2023/04/12 00:13:59;;;;;;;0.00;0.00;;;9.10;76.70;;;;;;5040533;28;20041;-63
2023/04/12 00:16:25;;;;;;;0.00;0.00;;;9.10;76.70;;;;;;5042689;28;20043;-64
2023/04/12 00:18:50;;;;;;;0.00;0.00;;;9.10;77.30;;;;;;5034383;28;20039;-62
2023/04/12 00:21:18;;;;;;;0.00;0.00;;;9.10;77.30;;;;;;5042394;28;20693;-62
2023/04/12 00:23:45;;;;;;;1.52;0.65;;;9.10;77.80;;;;;;5049770;28;20051;-63
2023/04/12 00:26:11;;;;;;;0.05;0.05;;;9.10;77.50;;;;;;5046557;28;20051;-63
2023/04/12 00:28:36;;;;;;;0.00;0.00;;;9.10;78.00;;;;;;5048373;28;20037;-62
2023/04/12 00:31:02;;;;;;;0.00;0.00;;;9.10;77.90;;;;;;5037700;28;20471;-62
2023/04/12 00:33:27;;;;;;;0.00;0.00;;;9.10;77.70;;;;;;5031963;28;20037;-62
2023/04/12 00:35:53;;;;;;;1.75;1.45;;;9.10;78.40;;;;;;5040804;28;20041;-62
2023/04/12 00:38:18;;;;;;;0.00;0.00;;;9.10;78.80;;;;;;5031551;28;20051;-63
2023/04/12 00:40:44;;;;;;;0.08;0.08;;;9.10;79.50;;;;;;5049292;28;20115;-63
2023/04/12 00:43:17;;;;;;;0.00;0.00;;;9.10;79.50;;;;;;5044056;28;20179;-62
2023/04/12 00:45:44;;;;;;;0.00;0.00;;;9.10;79.50;;;;;;5036080;28;20121;-62
2023/04/12 00:48:11;;;;;;;0.00;0.00;;;9.10;80.60;;;;;;5040098;28;20567;-63
2023/04/12 00:50:37;;;;;;;0.00;0.00;;;9.10;81.60;;;;;;5041172;28;20410;-62
2023/04/12 00:53:02;;;;;;;0.00;0.00;;;9.10;82.00;;;;;;5012478;28;20052;-62
2023/04/12 00:55:28;;;;;;;0.00;0.00;;;9.10;82.10;;;;;;5036751;28;20042;-62
2023/04/12 00:57:54;;;;;;;0.40;0.40;;;9.10;82.10;;;;;;5035368;28;20403;-62
2023/04/12 01:00:20;;;;;;;0.00;0.00;;;9.10;82.70;;;;;;5041904;28;20050;-63
2023/04/12 01:02:47;;;;;;;0.00;0.00;;;9.00;82.80;;;;;;5049161;28;20079;-62
2023/04/12 01:05:20;;;;;;;0.00;0.00;;;9.00;83.30;;;;;;5047900;28;20037;-63
2023/04/12 01:08:10;;;;;;;0.00;0.00;;;9.00;83.00;;;;;;5036192;28;20481;-62
2023/04/12 01:10:54;;;;;;;0.08;0.08;;;9.00;83.10;;;;;;5029778;28;21491;-62
2023/04/12 01:13:38;;;;;;;0.30;0.30;;;9.00;83.40;;;;;;5041435;28;20627;-63
2023/04/12 01:16:30;;;;;;;0.00;0.00;;;9.00;83.60;;;;;;5043700;28;20650;-62
2023/04/12 01:19:02;;;;;;;0.00;0.00;;;9.00;83.90;;;;;;5033454;28;20684;-63
2023/04/12 01:21:39;;;;;;;;;;;9.00;84.20;;;;;;5048909;28;20049;-63
2023/04/12 01:24:22;;;;;;;0.00;0.00;;;8.90;84.20;;;;;;5037783;28;19925;-62
2023/04/12 01:26:48;;;;;;;0.00;0.00;;;9.00;84.60;;;;;;5040247;28;20087;-62
2023/04/12 01:29:16;;;;;;;0.00;0.00;;;8.90;84.70;;;;;;5039453;28;20050;-63
2023/04/12 01:31:55;;;;;;;0.00;0.00;;;8.90;84.60;;;;;;5038634;28;20044;-62
2023/04/12 01:34:23;;;;;;;0.00;0.00;;;8.90;85.00;;;;;;5047380;28;20045;-63
2023/04/12 01:36:50;;;;;;;0.00;0.00;;;8.90;85.10;;;;;;5034079;28;20493;-63
2023/04/12 01:39:16;;;;;;;0.05;0.05;;;8.80;85.20;;;;;;5036954;28;20041;-63
2023/04/12 01:41:44;;;;;;;0.03;0.03;;;8.80;85.30;;;;;;5042074;28;20101;-63
2023/04/12 01:44:13;;;;;;;0.00;0.00;;;8.80;85.20;;;;;;5047079;28;20100;-63
2023/04/12 01:46:39;;;;;;;0.00;0.00;;;8.70;85.40;;;;;;5040198;28;20033;-63
2023/04/12 01:49:05;;;;;;;0.00;0.00;;;8.80;85.70;;;;;;5042898;28;20060;-62
2023/04/12 01:51:43;;;;;;;0.00;0.00;;;8.70;86.10;;;;;;5040878;28;20086;-63
2023/04/12 01:54:13;;;;;;;0.00;0.00;;;8.70;86.20;;;;;;5025107;28;20124;-63
2023/04/12 01:56:44;;;;;;;0.00;0.00;;;8.70;86.20;;;;;;5038195;28;20067;-63
2023/04/12 01:59:14;;;;;;;0.10;0.10;;;8.70;86.40;;;;;;5043301;28;20041;-63
2023/04/12 02:01:40;;;;;;;0.10;0.10;;;8.70;86.90;;;;;;5040282;28;20076;-63
2023/04/12 02:04:08;;;;;;;0.00;0.00;;;8.70;86.70;;;;;;5046284;28;20478;-63
2023/04/12 02:06:34;;;;;;;0.00;0.00;;;8.60;86.50;;;;;;5044273;28;20049;-64
2023/04/12 02:09:01;;;;;;;0.00;0.00;;;8.60;86.60;;;;;;5046398;28;20052;-63
2023/04/12 02:11:27;;;;;;;0.00;0.00;;;8.60;86.60;;;;;;5041339;28;20049;-62
2023/04/12 02:13:53;;;;;;;0.00;0.00;;;8.70;86.30;;;;;;5028929;28;20052;-62
2023/04/12 02:16:19;;;;;;;0.00;0.00;;;8.60;86.30;;;;;;5029217;28;20042;-63
2023/04/12 02:18:46;;;;;;;0.00;0.00;;;8.60;86.10;;;;;;5033396;28;20048;-62
2023/04/12 02:21:11;;;;;;;0.00;0.00;;;8.60;86.50;;;;;;5036884;28;20042;-63
2023/04/12 02:23:37;;;;;;;0.00;0.00;;;8.60;86.70;;;;;;5040850;28;20053;-63
2023/04/12 02:26:03;;;;;;;0.20;0.20;;;8.60;86.60;;;;;;5030684;28;20059;-63
2023/04/12 02:28:28;;;;;;;0.73;0.73;;;8.60;86.50;;;;;;5040697;28;20041;-63
2023/04/12 02:30:54;;;;;;;0.00;0.00;;;8.60;86.90;;;;;;5011615;28;20041;-63
2023/04/12 02:33:27;;;;;;;0.00;0.00;;;8.60;87.20;;;;;;5028477;28;20438;-64
2023/04/12 02:35:53;;;;;;;0.20;0.20;;;8.60;87.10;;;;;;5025461;28;20403;-63
2023/04/12 02:38:18;;;;;;;0.10;0.10;;;8.60;87.00;;;;;;5041207;28;20037;-62
2023/04/12 02:40:44;;;;;;;0.00;0.00;;;8.60;87.30;;;;;;5030228;28;20041;-63
2023/04/12 02:43:09;;;;;;;0.00;0.00;;;8.60;87.40;;;;;;5036019;28;20041;-63
2023/04/12 02:45:35;;;;;;;0.00;0.00;;;8.60;87.50;;;;;;5030557;28;20119;-64
2023/04/12 02:48:01;;;;;;;0.00;0.00;;;8.50;87.70;;;;;;5031342;28;20037;-62
2023/04/12 02:50:28;;;;;;;0.00;0.00;;;8.60;88.00;;;;;;5028683;28;20099;-62
2023/04/12 02:52:53;;;;;;;0.00;0.00;;;8.60;87.90;;;;;;5033199;28;20513;-62
2023/04/12 02:55:19;;;;;;;0.00;0.00;;;8.60;87.90;;;;;;5025090;28;20037;-64
2023/04/12 02:57:44;;;;;;;0.00;0.00;;;8.50;88.00;;;;;;5044881;28;20076;-63
2023/04/12 03:00:11;;;;;;;0.00;0.00;;;8.50;88.00;;;;;;5033609;28;20134;-62
2023/04/12 03:02:37;;;;;;;0.00;0.00;;;8.50;87.90;;;;;;5046170;28;20053;-62
2023/04/12 03:05:03;;;;;;;0.60;0.57;;;8.60;87.90;;;;;;5046880;28;20048;-63
2023/04/12 03:07:29;;;;;;;0.00;0.00;;;8.50;88.00;;;;;;5047051;28;20093;-63
2023/04/12 03:09:55;;;;;;;0.00;0.00;;;8.50;88.00;;;;;;5046220;28;20048;-62
2023/04/12 03:12:21;;;;;;;0.00;0.00;;;8.50;88.40;;;;;;5040147;28;20030;-63
2023/04/12 03:14:47;;;;;;;0.10;0.10;;;8.60;88.40;;;;;;5027916;28;20049;-62
2023/04/12 03:17:12;;;;;;;0.00;0.00;;;8.60;88.30;;;;;;5034092;28;20071;-62
2023/04/12 03:19:38;;;;;;;0.00;0.00;;;8.60;88.50;;;;;;5044411;28;20072;-62
2023/04/12 03:22:04;;;;;;;0.00;0.00;;;8.60;88.60;;;;;;5035210;28;20095;-63
2023/04/12 03:24:33;;;;;;;0.00;0.00;;;8.50;88.60;;;;;;5039092;28;20678;-63
2023/04/12 03:27:01;;;;;;;0.00;0.00;;;8.50;88.70;;;;;;5028300;28;20717;-63
2023/04/12 03:29:26;;;;;;;0.00;0.00;;;8.50;88.90;;;;;;5042568;28;20124;-63
2023/04/12 03:31:52;;;;;;;0.00;0.00;;;8.50;88.90;;;;;;5034224;28;20112;-63
2023/04/12 03:34:17;;;;;;;0.00;0.00;;;8.50;88.80;;;;;;5032183;28;20383;-62
2023/04/12 03:36:43;;;;;;;0.05;0.05;;;8.50;88.90;;;;;;5043331;28;20045;-63
2023/04/12 03:39:08;;;;;;;0.00;0.00;;;8.50;88.90;;;;;;5014105;28;20048;-63
2023/04/12 03:41:34;;;;;;;0.10;0.10;;;8.40;88.90;;;;;;5015593;28;20092;-63
2023/04/12 03:44:00;;;;;;;0.00;0.00;;;8.40;89.10;;;;;;5040537;28;20064;-63
2023/04/12 03:46:25;;;;;;;0.00;0.00;;;8.50;89.30;;;;;;5041635;28;20083;-62
2023/04/12 03:48:51;;;;;;;0.00;0.00;;;8.40;89.40;;;;;;5042480;28;20044;-63
2023/04/12 03:51:20;;;;;;;0.00;0.00;;;8.40;89.40;;;;;;5043440;28;20072;-63
2023/04/12 03:53:49;;;;;;;0.00;0.00;;;8.40;89.30;;;;;;5045411;28;20498;-63
2023/04/12 03:56:15;;;;;;;0.00;0.00;;;8.40;89.50;;;;;;5043840;28;20037;-63
2023/04/12 03:58:41;;;;;;;0.00;0.00;;;8.40;89.40;;;;;;5034599;28;20091;-63
2023/04/12 04:01:06;;;;;;;0.00;0.00;;;8.40;89.50;;;;;;5037756;28;20057;-64
2023/04/12 04:03:33;;;;;;;0.00;0.00;;;8.40;89.50;;;;;;5049550;28;20512;-64
2023/04/12 04:06:02;;;;;;;0.38;0.30;;;8.40;89.80;;;;;;5049474;28;20123;-63
2023/04/12 04:08:29;;;;;;;0.03;0.03;;;8.40;89.50;;;;;;5048037;28;20076;-64
2023/04/12 04:10:56;;;;;;;0.10;0.10;;;8.40;89.60;;;;;;5050200;28;20041;-63
2023/04/12 04:13:22;;;;;;;0.00;0.00;;;8.40;89.80;;;;;;5045743;28;20032;-63
2023/04/12 04:15:57;;;;;;;0.00;0.00;;;8.30;89.80;;;;;;5048484;28;20559;-63
2023/04/12 04:18:22;;;;;;;0.00;0.00;;;8.30;90.10;;;;;;5031554;28;20041;-63
2023/04/12 04:20:48;;;;;;;0.00;0.00;;;8.30;90.30;;;;;;5027306;28;20044;-63
2023/04/12 04:23:14;;;;;;;0.20;0.20;;;8.30;90.20;;;;;;5031626;28;20034;-64
2023/04/12 04:25:40;;;;;;;0.00;0.00;;;8.30;90.20;;;;;;5038957;28;20472;-63
2023/04/12 04:28:06;;;;;;;0.00;0.00;;;8.30;90.10;;;;;;5048498;28;20044;-64
2023/04/12 04:30:33;;;;;;;0.00;0.00;;;8.30;90.20;;;;;;5026589;28;20042;-63
2023/04/12 04:32:58;;;;;;;0.00;0.00;;;8.30;90.30;;;;;;5047226;28;20041;-64
2023/04/12 04:35:24;;;;;;;0.00;0.00;;;8.30;90.40;;;;;;5049215;28;20037;-63
2023/04/12 04:37:51;;;;;;;0.00;0.00;;;8.30;90.50;;;;;;5047543;28;20071;-63
2023/04/12 04:40:19;;;;;;;1.35;1.25;;;8.30;90.50;;;;;;5048287;28;20072;-63
2023/04/12 04:42:53;;;;;;;0.00;0.00;;;8.30;90.50;;;;;;5039849;28;20046;-63
2023/04/12 04:45:20;;;;;;;0.00;0.00;;;8.30;90.70;;;;;;5030598;28;20509;-63
2023/04/12 04:47:46;;;;;;;0.00;0.00;;;8.20;90.70;;;;;;5021243;28;20033;-64
2023/04/12 04:50:12;;;;;;;0.00;0.00;;;8.20;90.80;;;;;;5035419;28;20044;-63
2023/04/12 04:52:38;;;;;;;0.00;0.00;;;8.20;90.70;;;;;;5044401;28;20105;-64
2023/04/12 04:55:04;;;;;;;0.00;0.00;;;8.20;90.80;;;;;;5048376;28;20072;-64
2023/04/12 05:00:17;;;;;;;0.00;0.00;;;8.20;90.80;;;;;;4981418;28;20474;-66
2023/04/12 05:02:44;;;;;;;0.00;0.00;;;8.10;91.10;;;;;;4985346;28;20054;-64
2023/04/12 05:05:12;;;;;;;0.00;0.00;;;8.20;91.10;;;;;;4985460;28;20679;-63
2023/04/12 05:07:38;;;;;;;0.00;0.00;;;8.20;91.00;;;;;;4976494;28;20050;-63
2023/04/12 05:10:04;;;;;;;0.00;0.00;;;8.20;91.00;;;;;;4982969;28;20034;-63
2023/04/12 05:12:30;;;;;;;0.00;0.00;;;8.20;90.80;;;;;;4985678;28;20042;-64
2023/04/12 05:14:56;;;;;;;0.00;0.00;;;8.10;91.00;;;;;;4984090;28;20049;-63
2023/04/12 05:17:21;;;;;;;51.95;1.85;;;8.20;91.10;;;;;;4987074;28;20101;-62
2023/04/12 05:19:47;;;;;;;0.00;0.00;;;8.20;91.10;;;;;;4960628;28;20049;-63
2023/04/12 05:22:13;;;;;;;0.00;0.00;;;8.20;91.10;;;;;;4979562;28;20514;-64
2023/04/12 05:24:39;;;;;;;0.10;0.10;;;8.20;91.10;;;;;;4989369;28;20129;-63
2023/04/12 05:27:05;;;;;;;0.00;0.00;;;8.20;91.10;;;;;;4983406;28;20408;-62
2023/04/12 05:29:30;;;;;;;0.20;0.20;;;8.20;91.00;;;;;;4971508;28;20121;-63
2023/04/12 05:31:57;;;;;;;0.00;0.00;;;8.20;91.20;;;;;;4982405;28;20039;-62
2023/04/12 05:34:23;;;;;;;0.00;0.00;;;8.10;91.20;;;;;;4971187;28;20770;-63
2023/04/12 05:36:49;;;;;;;0.00;0.00;;;8.20;91.20;;;;;;4987110;28;20093;-64
2023/04/12 05:39:15;;;;;;;0.00;0.00;;;8.20;91.20;;;;;;4972007;28;20046;-63
2023/04/12 05:41:40;;;;;;;0.00;0.00;;;8.10;91.40;;;;;;4974951;28;20405;-63
2023/04/12 05:44:06;;;;;;;0.00;0.00;;;8.20;91.40;;;;;;4972130;28;20112;-63
2023/04/12 05:46:31;;;;;;;0.08;0.08;;;8.10;91.50;;;;;;4980659;28;20053;-63
2023/04/12 05:48:57;;;;;;;0.05;0.05;;;8.10;91.60;;;;;;4975668;28;20830;-63
2023/04/12 05:51:23;;;;;;;0.00;0.00;;;8.10;91.70;;;;;;4983527;28;20466;-63
2023/04/12 05:53:48;;;;;;;0.00;0.00;;;8.10;91.70;;;;;;4973657;28;20031;-63
2023/04/12 05:56:15;;;;;;;0.00;0.00;;;8.10;91.70;;;;;;4985923;28;20108;-63
2023/04/12 05:58:40;;;;;;;0.00;0.00;;;8.10;91.70;;;;;;4973229;28;20062;-63
2023/04/12 06:01:06;;;;;;;0.00;0.00;;;8.10;91.70;;;;;;4965750;28;20475;-63
2023/04/12 06:03:32;;;;;;;0.00;0.00;;;8.10;91.70;;;;;;4978401;28;20046;-62
2023/04/12 06:05:57;;;;;;;0.00;0.00;;;8.10;91.80;;;;;;4977905;28;20039;-63
2023/04/12 06:08:23;;;;;;;0.00;0.00;;;8.10;91.90;;;;;;4970114;28;20051;-63
2023/04/12 06:10:49;;;;;;;0.00;0.00;;;8.10;92.10;;;;;;4951704;28;20043;-63
2023/04/12 06:13:14;;;;;;;0.00;0.00;;;8.20;92.00;;;;;;4955676;28;20470;-63
2023/04/12 06:15:40;;;;;;;0.08;0.08;;;8.20;91.90;;;;;;4964346;28;20043;-63
2023/04/12 06:18:08;;;;;;;0.00;0.00;;;8.20;91.90;;;;;;4950499;28;20523;-63
2023/04/12 06:20:37;;;;;;;0.00;0.00;;;8.30;91.80;;;;;;4951612;29;20047;-63
2023/04/12 06:23:03;;;;;;;0.00;0.00;;;8.20;91.60;;;;;;4951505;29;20039;-63
2023/04/12 06:25:28;;;;;;;0.00;0.00;;;8.20;91.60;;;;;;4938332;28;20039;-63
2023/04/12 06:27:54;;;;;;;0.00;0.00;;;8.20;91.50;;;;;;4970489;28;20492;-63
2023/04/12 06:30:19;;;;;;;0.00;0.00;;;8.30;91.50;;;;;;4970860;28;20077;-63
2023/04/12 06:32:45;;;;;;;0.43;0.43;;;8.30;91.40;;;;;;4970716;28;20128;-63
2023/04/12 06:35:10;;;;;;;0.00;0.00;;;8.30;91.40;;;;;;4970133;28;20084;-63
2023/04/12 06:37:36;;;;;;;0.00;0.00;;;8.30;91.40;;;;;;4933934;29;20129;-63
2023/04/12 06:40:01;;;;;;;0.00;0.00;;;8.30;91.30;;;;;;4962178;28;20559;-63
2023/04/12 06:42:27;;;;;;;0.20;0.20;;;8.30;91.30;;;;;;4970471;28;20570;-63
2023/04/12 06:44:52;;;;;;;0.00;0.00;;;8.30;91.40;;;;;;4962572;28;20093;-63
2023/04/12 06:47:21;;;;;;;0.00;0.00;;;8.30;91.40;;;;;;4962889;28;20133;-63
2023/04/12 06:49:46;;;;;;;0.00;0.00;;;8.30;91.30;;;;;;4970010;28;20069;-62
2023/04/12 06:52:12;;;;;;;0.15;0.15;;;8.30;91.10;;;;;;4952315;28;20484;-64
2023/04/12 06:54:38;;;;;;;0.00;0.00;;;8.30;91.20;;;;;;4924097;28;20170;-62
2023/04/12 06:57:11;;;;;;;0.00;0.00;;;8.30;91.30;;;;;;4966552;28;20125;-62
2023/04/12 06:59:36;;;;;;;0.00;0.00;;;8.30;91.50;;;;;;4974022;28;20050;-62
2023/04/12 07:02:02;;;;;;;0.00;0.00;;;8.30;91.60;;;;;;4966565;28;20594;-62
2023/04/12 07:04:27;;;;;;;0.00;0.00;;;8.40;91.50;;;;;;4970054;28;20069;-62
2023/04/12 07:06:53;;;;;;;0.00;0.00;;;8.40;91.30;;;;;;4967703;28;20566;-63
2023/04/12 07:09:18;;;;;;;0.00;0.00;;;8.40;91.00;;;;;;4969414;28;20515;-63
2023/04/12 07:11:44;;;;;;;0.00;0.00;;;8.40;91.00;;;;;;4968319;28;20654;-63
2023/04/12 07:14:10;;;;;;;0.00;0.00;;;8.40;91.00;;;;;;4969408;28;20054;-63
2023/04/12 07:16:35;;;;;;;0.00;0.00;;;8.40;90.80;;;;;;4962490;28;20039;-63
2023/04/12 07:19:01;;;;;;;0.00;0.00;;;8.50;90.70;;;;;;4965420;28;20043;-63
2023/04/12 07:21:27;;;;;;;0.00;0.00;;;8.50;90.80;;;;;;4965165;28;20027;-63
2023/04/12 07:23:52;;;;;;;0.00;0.00;;;8.50;91.00;;;;;;4953532;28;20049;-63
2023/04/12 07:26:18;;;;;;;0.00;0.00;;;8.50;90.90;;;;;;4937202;28;20091;-62
2023/04/12 07:28:44;;;;;;;0.00;0.00;;;8.50;90.80;;;;;;4968972;28;20126;-62
2023/04/12 07:31:09;;;;;;;0.00;0.00;;;8.50;90.90;;;;;;4964634;28;20090;-63
2023/04/12 07:33:36;;;;;;;0.00;0.00;;;8.60;90.90;;;;;;4967343;28;20042;-63
2023/04/12 07:36:02;;;;;;;0.10;0.10;;;8.60;91.10;;;;;;4937671;28;20055;-63
2023/04/12 07:38:28;;;;;;;0.00;0.00;;;8.60;91.00;;;;;;4954483;28;20055;-62
2023/04/12 07:40:55;;;;;;;0.00;0.00;;;8.50;91.00;;;;;;4947817;28;20506;-63
2023/04/12 07:43:21;;;;;;;0.00;0.00;;;8.60;91.10;;;;;;4973471;28;20046;-63
2023/04/12 07:45:47;;;;;;;0.00;0.00;;;8.60;91.20;;;;;;4958751;28;20039;-61
2023/04/12 07:48:13;;;;;;;0.00;0.00;;;8.60;91.10;;;;;;4956442;28;20468;-62
2023/04/12 07:50:40;;;;;;;0.10;0.10;;;8.60;90.90;;;;;;4958707;28;20050;-62
2023/04/12 07:53:26;;;;;;;0.00;0.00;;;8.70;91.10;;;;;;4964693;28;20117;-62
2023/04/12 07:55:53;;;;;;;0.10;0.10;;;8.60;91.20;;;;;;4972934;28;20455;-62
2023/04/12 07:58:20;;;;;;;0.00;0.00;;;8.60;91.20;;;;;;4970304;28;20055;-63
2023/04/12 08:00:46;;;;;;;0.00;0.00;;;8.60;91.10;;;;;;4949522;28;20047;-63
2023/04/12 08:03:14;;;;;;;0.00;0.00;;;8.60;91.20;;;;;;4972412;28;20042;-63
2023/04/12 08:05:40;;;;;;;0.10;0.10;;;8.70;91.30;;;;;;4970662;28;20515;-63
2023/04/12 08:08:06;;;;;;;0.00;0.00;;;8.60;91.30;;;;;;4967421;28;20070;-62
2023/04/12 08:10:32;;;;;;;0.00;0.00;;;8.70;91.60;;;;;;4973888;28;20066;-62
2023/04/12 08:12:58;;;;;;;0.00;0.00;;;8.70;91.70;;;;;;4954739;28;20047;-62
2023/04/12 08:15:24;;;;;;;0.00;0.00;;;8.70;91.60;;;;;;4957311;28;20045;-62
2023/04/12 08:17:49;;;;;;;0.00;0.00;;;8.70;91.50;;;;;;4966539;28;20050;-62
2023/04/12 08:20:15;;;;;;;0.00;0.00;;;8.80;91.40;;;;;;4953742;29;20512;-63
2023/04/12 08:22:42;;;;;;;0.00;0.00;;;8.80;91.40;;;;;;4962252;28;20049;-63
2023/04/12 08:25:08;;;;;;;0.00;0.00;;;8.80;91.50;;;;;;4953820;28;20142;-62
2023/04/12 08:27:34;;;;;;;0.00;0.00;;;8.90;91.60;;;;;;4961440;28;20138;-63
2023/04/12 08:29:59;;;;;;;0.00;0.00;;;8.90;91.70;;;;;;4954790;28;20055;-62
2023/04/12 08:32:25;;;;;;;0.00;0.00;;;9.00;91.90;;;;;;4967117;28;20456;-62
2023/04/12 08:34:51;;;;;;;0.00;0.00;;;9.10;91.90;;;;;;4955358;28;20487;-62
2023/04/12 08:37:16;;;;;;;0.00;0.00;;;9.10;91.80;;;;;;4968402;28;20071;-62
2023/04/12 08:39:42;;;;;;;0.00;0.00;;;9.20;91.70;;;;;;4967427;28;20527;-62
2023/04/12 08:42:09;;;;;;;0.00;0.00;;;9.30;91.70;;;;;;4958973;28;20038;-62
2023/04/12 08:44:37;;;;;;;0.00;0.00;;;9.50;91.80;;;;;;4945698;28;20039;-61
2023/04/12 08:47:08;;;;;;;0.00;0.00;;;9.50;91.80;;;;;;4967070;28;20039;-62
2023/04/12 08:49:34;;;;;;;0.00;0.00;;;9.60;91.70;;;;;;4964201;28;20043;-63
2023/04/12 08:52:04;;;;;;;0.00;0.00;;;9.70;91.80;;;;;;4956948;28;20503;-66
2023/04/12 08:54:30;;;;;;;0.00;0.00;;;9.70;91.80;;;;;;4952732;28;20062;-62
2023/04/12 08:56:58;;;;;;;0.00;0.00;;;9.90;91.80;;;;;;4974992;28;20046;-62
2023/04/12 08:59:26;;;;;;;0.00;0.00;;;9.90;91.80;;;;;;4953116;28;20367;-61
2023/04/12 09:01:54;;;;;;;0.00;0.00;;;10.10;91.70;;;;;;4965929;28;20105;-62
2023/04/12 09:04:20;;;;;;;0.00;0.00;;;10.20;91.50;;;;;;4952844;28;20047;-62
2023/04/12 09:06:45;;;;;;;0.52;0.52;;;10.30;91.40;;;;;;4954864;28;20044;-62
2023/04/12 09:09:11;;;;;;;0.05;0.05;;;10.30;91.20;;;;;;4962398;28;20086;-64
2023/04/12 09:11:36;;;;;;;0.00;0.00;;;10.40;91.00;;;;;;4970034;28;20078;-63
2023/04/12 09:14:02;;;;;;;0.00;0.00;;;10.40;90.80;;;;;;4970299;28;20109;-63
2023/04/12 09:16:39;;;;;;;0.00;0.00;;;10.30;90.20;;;;;;4962526;28;20572;-62
2023/04/12 09:19:05;;;;;;;0.52;0.35;;;10.20;89.20;;;;;;4972063;28;20097;-63
2023/04/12 09:21:35;;;;;;;0.00;0.00;;;10.20;88.50;;;;;;4972012;28;20042;-64
2023/04/12 09:24:12;;;;;;;0.10;0.10;;;10.30;87.80;;;;;;4971906;28;20101;-66
2023/04/12 09:26:38;;;;;;;0.00;0.00;;;10.50;87.70;;;;;;4971637;28;20051;-64
2023/04/12 09:29:04;;;;;;;0.00;0.00;;;10.50;86.30;;;;;;4963432;28;20448;-62
2023/04/12 09:31:30;;;;;;;0.00;0.00;;;10.60;85.50;;;;;;4953187;28;20102;-62
2023/04/12 09:34:10;;;;;;;0.00;0.00;;;10.60;85.60;;;;;;4953622;28;20038;-63
2023/04/12 09:36:39;;;;;;;0.00;0.00;;;10.70;85.00;;;;;;4968179;28;20047;-62
2023/04/12 09:39:06;;;;;;;0.00;0.00;;;10.70;84.10;;;;;;4957186;28;20047;-62
2023/04/12 09:41:32;;;;;;;0.00;0.00;;;10.80;84.20;;;;;;4960883;28;20035;-63
2023/04/12 09:43:59;;;;;;;0.10;0.10;;;10.90;83.90;;;;;;4959300;28;20063;-63
2023/04/12 09:46:25;;;;;;;0.00;0.00;;;11.10;84.30;;;;;;4964882;28;20047;-62
2023/04/12 09:48:53;;;;;;;0.00;0.00;;;11.20;84.00;;;;;;4966624;28;20066;-63
2023/04/12 09:51:27;;;;;;;2.55;0.70;;;11.30;84.00;;;;;;4963825;28;20070;-62
2023/04/12 09:53:58;;;;;;;0.00;0.00;;;11.40;83.10;;;;;;4965237;28;20066;-62
2023/04/12 09:56:26;;;;;;;0.00;0.00;;;11.60;83.90;;;;;;4954059;28;20814;-63
2023/04/12 09:58:53;;;;;;;0.00;0.00;;;11.70;83.00;;;;;;4944141;28;20056;-63
2023/04/12 10:01:22;;;;;;;0.00;0.00;;;11.80;83.00;;;;;;4979831;28;20042;-62
2023/04/12 10:03:48;;;;;;;0.00;0.00;;;11.80;82.60;;;;;;4958405;28;20047;-63
2023/04/12 10:06:15;;;;;;;0.08;0.08;;;11.90;82.20;;;;;;4962858;28;20129;-63
2023/04/12 10:08:41;;;;;;;0.08;0.08;;;11.80;78.90;;;;;;4961491;28;20583;-62
2023/04/12 10:11:08;;;;;;;0.10;0.10;;;11.90;80.30;;;;;;4969938;28;20133;-62
2023/04/12 10:13:35;;;;;;;0.00;0.00;;;12.00;79.30;;;;;;4955560;28;20047;-63
2023/04/12 10:16:04;;;;;;;0.00;0.00;;;12.10;78.80;;;;;;4952883;28;20076;-62
2023/04/12 10:18:33;;;;;;;0.10;0.10;;;12.20;79.60;;;;;;4956289;28;20670;-62
2023/04/12 10:21:00;;;;;;;0.00;0.00;;;12.20;79.80;;;;;;4951642;29;20424;-63
2023/04/12 10:23:25;;;;;;;0.00;0.00;;;12.30;79.60;;;;;;4961659;28;20159;-62
2023/04/12 10:25:52;;;;;;;0.00;0.00;;;12.40;79.60;;;;;;4960583;28;20393;-63
2023/04/12 10:28:21;;;;;;;0.00;0.00;;;12.50;78.50;;;;;;4961875;28;20047;-63
2023/04/12 10:30:49;;;;;;;0.00;0.00;;;12.50;77.40;;;;;;4959417;28;20050;-63
2023/04/12 10:33:16;;;;;;;0.00;0.00;;;12.50;75.20;;;;;;4953313;28;20058;-62
2023/04/12 10:35:53;;;;;;;0.03;0.03;;;12.50;76.70;;;;;;4936119;29;20101;-63
2023/04/12 10:38:19;;;;;;;0.00;0.00;;;12.60;76.80;;;;;;4929723;28;20050;-63
2023/04/12 10:41:13;;;;;;;0.00;0.00;;;12.60;76.50;;;;;;4969387;28;20039;-63
2023/04/12 10:43:40;;;;;;;0.00;0.00;;;12.60;76.30;;;;;;4966661;28;20144;-62
2023/04/12 10:46:06;;;;;;;0.10;0.10;;;12.60;76.60;;;;;;4973044;28;20408;-63
2023/04/12 10:48:49;;;;;;;0.00;0.00;;;12.70;76.20;;;;;;4967604;28;20043;-62
2023/04/12 10:51:22;;;;;;;1.15;1.05;;;12.80;76.50;;;;;;4962436;28;20036;-63
2023/04/12 10:53:48;;;;;;;0.00;0.00;;;12.80;75.50;;;;;;4949510;28;20552;-63
2023/04/12 10:56:28;;;;;;;0.00;0.00;;;12.80;74.60;;;;;;4943425;28;20047;-63
2023/04/12 10:58:56;;;;;;;0.00;0.00;;;12.60;72.60;;;;;;4966652;28;20051;-63
2023/04/12 11:01:21;;;;;;;0.00;0.00;;;12.40;71.00;;;;;;4945438;28;20539;-63
2023/04/12 11:04:13;;;;;;;0.00;0.00;;;12.50;73.20;;;;;;4966316;28;20063;-63
2023/04/12 11:06:51;;;;;;;0.40;0.40;;;12.50;73.60;;;;;;4963814;28;20053;-63
2023/04/12 11:09:33;;;;;;;0.00;0.00;;;12.40;72.90;;;;;;4967335;28;20401;-63
2023/04/12 11:12:07;;;;;;;;;;;12.20;73.40;;;;;;4976325;28;20046;-63
2023/04/12 11:14:46;;;;;;;0.00;0.00;;;12.30;74.30;;;;;;4974541;28;19929;-63
2023/04/12 11:17:12;;;;;;;0.00;0.00;;;12.30;74.00;;;;;;4975115;28;20058;-64
2023/04/12 11:19:39;;;;;;;0.00;0.00;;;12.40;72.90;;;;;;4973796;28;20050;-63
2023/04/12 11:22:07;;;;;;;0.10;0.10;;;12.40;71.20;;;;;;4964643;28;20519;-63
2023/04/12 11:24:32;;;;;;;0.00;0.00;;;12.40;72.20;;;;;;4955890;28;20490;-63
2023/04/12 11:26:59;;;;;;;0.00;0.00;;;12.50;72.60;;;;;;4974379;28;20039;-63
2023/04/12 11:29:26;;;;;;;0.00;0.00;;;12.60;70.80;;;;;;4964970;28;20051;-63
2023/04/12 11:31:52;;;;;;;0.00;0.00;;;12.60;69.10;;;;;;4966208;28;20062;-63
2023/04/12 11:34:18;;;;;;;0.00;0.00;;;12.60;67.70;;;;;;4956477;28;20094;-63
2023/04/12 11:36:45;;;;;;;0.70;0.70;;;12.70;70.30;;;;;;4957409;28;20051;-63
2023/04/12 11:39:12;;;;;;;0.00;0.00;;;12.60;70.60;;;;;;4973047;28;20527;-63
2023/04/12 11:41:44;;;;;;;0.00;0.00;;;12.30;72.20;;;;;;4962315;28;20082;-63
2023/04/12 11:44:09;;;;;;;0.00;0.00;;;12.10;71.10;;;;;;4961021;28;20097;-63
2023/04/12 11:46:35;;;;;;;0.65;0.65;;;11.90;72.40;;;;;;4968447;28;20047;-63
2023/04/12 11:49:01;;;;;;;0.00;0.00;;;11.80;72.80;;;;;;4974240;28;21107;-63
2023/04/12 11:51:28;;;;;;;0.32;0.32;;;11.80;72.80;;;;;;4972927;28;20121;-63
2023/04/12 11:53:55;;;;;;;0.00;0.00;;;11.80;73.60;;;;;;4965940;28;20039;-63
2023/04/12 11:56:21;;;;;;;0.00;0.00;;;12.00;73.00;;;;;;4967791;28;20047;-63
2023/04/12 11:58:47;;;;;;;0.00;0.00;;;12.10;73.10;;;;;;4947384;28;20059;-63
2023/04/12 12:01:14;;;;;;;0.00;0.00;;;12.20;72.20;;;;;;4956528;28;20086;-63
2023/04/12 12:03:41;;;;;;;0.10;0.10;;;12.20;70.70;;;;;;4945243;28;20076;-63
2023/04/12 12:06:07;;;;;;;0.00;0.00;;;12.10;70.00;;;;;;4937452;29;20048;-63
2023/04/12 12:08:34;;;;;;;0.00;0.00;;;12.10;70.60;;;;;;4947396;29;20504;-63
2023/04/12 12:10:59;;;;;;;0.00;0.00;;;12.10;71.00;;;;;;4956859;28;20134;-63
2023/04/12 12:13:25;;;;;;;0.10;0.10;;;12.00;70.80;;;;;;4947250;28;20165;-63
2023/04/12 12:15:51;;;;;;;0.00;0.00;;;12.10;71.40;;;;;;4961283;28;20090;-63
2023/04/12 12:18:17;;;;;;;0.00;0.00;;;12.10;69.90;;;;;;4945895;28;20059;-63
2023/04/12 12:20:50;;;;;;;0.00;0.00;;;12.10;68.10;;;;;;4942698;29;20106;-64
2023/04/12 12:23:28;;;;;;;0.00;0.00;;;12.20;68.80;;;;;;4940094;28;20094;-64
2023/04/12 12:25:59;;;;;;;0.32;0.32;;;12.40;66.40;;;;;;4959715;28;20043;-63
2023/04/12 12:28:25;;;;;;;0.00;0.00;;;12.50;65.90;;;;;;4942235;29;20062;-64
2023/04/12 12:30:57;;;;;;;0.00;0.00;;;12.50;65.50;;;;;;4951037;28;20692;-63
2023/04/12 12:33:23;;;;;;;0.00;0.00;;;12.60;62.30;;;;;;4951168;28;20063;-63
2023/04/12 12:35:58;;;;;;;0.00;0.00;;;12.60;63.40;;;;;;4958911;28;20187;-63
2023/04/12 12:38:24;;;;;;;0.00;0.00;;;12.60;62.10;;;;;;4950538;28;20055;-63
2023/04/12 12:40:50;;;;;;;0.10;0.10;;;12.70;63.50;;;;;;4952591;29;20409;-63
2023/04/12 12:43:21;;;;;;;0.00;0.00;;;12.70;60.30;;;;;;4939816;28;20134;-63
2023/04/12 12:45:47;;;;;;;0.00;0.00;;;12.70;60.20;;;;;;4941755;29;20075;-63
2023/04/12 12:48:12;;;;;;;0.10;0.10;;;12.70;62.50;;;;;;4948475;28;20097;-62
2023/04/12 12:50:38;;;;;;;0.00;0.00;;;12.70;61.20;;;;;;4935920;29;20109;-62
2023/04/12 12:53:05;;;;;;;0.00;0.00;;;12.70;61.20;;;;;;4951749;28;20059;-62
2023/04/12 12:55:31;;;;;;;0.00;0.00;;;12.80;61.00;;;;;;4948642;29;20051;-63
2023/04/12 12:57:58;;;;;;;0.00;0.00;;;12.90;62.20;;;;;;4947721;28;20055;-62
2023/04/12 13:00:26;;;;;;;0.03;0.03;;;13.00;63.20;;;;;;4967016;28;20471;-62